Time;durP1;ratioP1;P1;durP2;ratioP2;P2;SDS_P1;SDS_P2;PMS_P1;PMS_P2;Temp;Humidity;BMP_temperature;BMP_pressure;BME280_temperature;BME280_humidity;BME280_pressure;Samples;Min_cycle;Max_cycle;Signal;HPM_P1;HPM_P2
2021/03/27 00:00:01;;;;;;;13.07;2.55;;;;;;;6.56;85.98;100351.22;5043971;28;20036;-83
2021/03/27 00:02:32;;;;;;;23.15;2.50;;;;;;;6.64;85.25;100353.44;5052318;28;20036;-83
2021/03/27 00:05:15;;;;;;;14.63;1.95;;;;;;;6.74;85.94;100352.88;5048724;28;20116;-83
2021/03/27 00:08:02;;;;;;;18.02;3.13;;;;;;;6.81;84.24;100349.94;5052400;28;20024;-83
2021/03/27 00:10:30;;;;;;;13.57;2.45;;;;;;;6.73;85.20;100355.56;5036157;28;20506;-83
2021/03/27 00:13:21;;;;;;;14.55;2.20;;;;;;;6.91;83.81;100351.97;5030996;28;20053;-83
2021/03/27 00:15:56;;;;;;;21.33;2.30;;;;;;;7.08;83.37;100352.84;5032441;28;20033;-83
2021/03/27 00:18:54;;;;;;;14.82;2.67;;;;;;;7.11;83.31;100358.75;5032084;28;20038;-83
2021/03/27 00:21:37;;;;;;;12.82;2.85;;;;;;;7.02;83.60;100356.63;5042923;28;20027;-83
2021/03/27 00:24:20;;;;;;;23.80;2.85;;;;;;;6.87;84.65;100354.81;5035195;28;20082;-83
2021/03/27 00:26:50;;;;;;;20.50;2.58;;;;;;;6.86;84.60;100359.22;5051782;28;20512;-83
2021/03/27 00:29:34;;;;;;;8.52;2.95;;;;;;;6.97;85.28;100361.25;5047481;28;20060;-83
2021/03/27 00:32:08;;;;;;;13.40;2.03;;;;;;;7.01;85.87;100369.75;5043534;28;20483;-83
2021/03/27 00:34:40;;;;;;;12.43;2.28;;;;;;;7.06;85.66;100368.56;5037471;28;20664;-83
2021/03/27 00:37:11;;;;;;;17.33;3.80;;;;;;;6.98;86.45;100381.19;5044106;28;20052;-83
2021/03/27 00:39:45;;;;;;;18.80;2.63;;;;;;;6.69;84.29;100420.09;5045870;28;20026;-83
2021/03/27 00:42:33;;;;;;;11.93;1.73;;;;;;;6.33;84.42;100396.75;5031692;28;20079;-83
2021/03/27 00:45:04;;;;;;;7.68;1.52;;;;;;;6.35;85.06;100406.16;5037941;28;20036;-83
2021/03/27 00:47:35;;;;;;;10.73;1.92;;;;;;;6.34;84.50;100398.44;5031784;28;20037;-83
2021/03/27 00:50:07;;;;;;;19.58;1.92;;;;;;;6.23;84.61;100426.81;5051409;28;20045;-83
2021/03/27 00:52:59;;;;;;;;;;;;;;;5.78;85.71;100426.31;5052488;28;20025;-84
2021/03/27 00:55:57;;;;;;;20.50;2.40;;;;;;;5.46;89.38;100459.94;5027718;28;19923;-84
2021/03/27 00:58:30;;;;;;;20.50;2.30;;;;;;;5.49;92.24;100457.19;5031336;28;20049;-83
2021/03/27 01:01:04;;;;;;;16.75;2.42;;;;;;;5.44;92.95;100453.94;5042476;28;20041;-83
2021/03/27 01:03:40;;;;;;;11.45;1.20;;;;;;;5.44;92.58;100461.75;5034246;28;20391;-83
2021/03/27 01:06:11;;;;;;;8.95;1.40;;;;;;;6.11;88.54;100449.13;5031796;28;20037;-83
2021/03/27 01:08:39;;;;;;;7.32;1.75;;;;;;;5.75;88.67;100445.56;5048278;28;20060;-83
2021/03/27 01:11:12;;;;;;;6.68;1.27;;;;;;;5.88;87.35;100430.16;5054894;28;20375;-83
2021/03/27 01:13:46;;;;;;;4.65;1.05;;;;;;;5.79;87.82;100427.19;5039013;28;20036;-83
2021/03/27 01:16:16;;;;;;;12.27;1.60;;;;;;;5.71;87.36;100427.56;5038590;28;20389;-83
2021/03/27 01:18:45;;;;;;;6.60;1.45;;;;;;;5.54;88.99;100410.94;5035253;28;20036;-83
2021/03/27 01:21:16;;;;;;;10.50;1.92;;;;;;;5.57;88.45;100417.78;5039833;28;20033;-83
2021/03/27 01:23:42;;;;;;;7.47;1.63;;;;;;;6.13;86.21;100416.81;5055326;28;20048;-83
2021/03/27 01:26:21;;;;;;;8.63;1.80;;;;;;;6.24;86.01;100411.09;5049956;28;20064;-84
2021/03/27 01:28:56;;;;;;;14.23;2.08;;;;;;;6.03;86.36;100427.78;5039540;28;20020;-83
2021/03/27 01:31:32;;;;;;;12.18;2.20;;;;;;;6.20;86.68;100427.81;5049109;28;20021;-83
2021/03/27 01:34:03;;;;;;;8.95;1.48;;;;;;;6.40;84.27;100419.00;5035200;28;20095;-83
2021/03/27 01:37:08;;;;;;;9.65;2.13;;;;;;;6.22;84.74;100418.16;5040550;28;20025;-83
2021/03/27 01:39:41;;;;;;;13.98;1.90;;;;;;;6.29;84.24;100418.69;5052934;28;20558;-83
2021/03/27 01:42:13;;;;;;;21.17;2.45;;;;;;;6.33;83.83;100434.09;5043267;28;20064;-83
2021/03/27 01:44:49;;;;;;;18.58;2.25;;;;;;;6.03;86.25;100425.19;5048003;28;20025;-83
2021/03/27 01:47:29;;;;;;;19.20;4.00;;;;;;;5.93;87.60;100436.03;5039588;28;20096;-83
2021/03/27 01:50:28;;;;;;;17.45;4.03;;;;;;;6.00;85.72;100435.75;5053076;28;20049;-83
2021/03/27 01:53:21;;;;;;;21.42;2.55;;;;;;;6.16;86.54;100457.53;5034876;28;20590;-83
2021/03/27 01:55:58;;;;;;;13.00;2.28;;;;;;;6.17;86.18;100469.66;5043658;28;20440;-83
2021/03/27 01:59:00;;;;;;;17.95;3.13;;;;;;;6.25;86.10;100466.69;5053153;28;20094;-83
2021/03/27 02:01:31;;;;;;;;;;;;;;;6.29;87.77;100476.03;5027397;28;20103;-83
2021/03/27 02:04:14;;;;;;;11.90;2.35;;;;;;;6.28;87.81;100472.59;5034776;28;20337;-83
2021/03/27 02:06:41;;;;;;;10.25;2.45;;;;;;;6.43;87.33;100501.44;5049483;28;20021;-83
2021/03/27 02:09:09;;;;;;;18.70;2.60;;;;;;;6.48;87.74;100499.47;5051307;28;20036;-83
2021/03/27 02:11:49;;;;;;;20.02;2.60;;;;;;;6.41;86.17;100513.72;5049124;28;20029;-83
2021/03/27 02:14:48;;;;;;;12.68;2.70;;;;;;;6.06;87.39;100514.50;5048444;28;20078;-83
2021/03/27 02:17:25;;;;;;;11.73;1.40;;;;;;;6.14;84.97;100503.69;4973510;28;20043;-83
2021/03/27 02:20:09;;;;;;;9.30;1.17;;;;;;;6.03;84.42;100513.81;5044626;28;20088;-84
2021/03/27 02:22:55;;;;;;;4.72;1.30;;;;;;;5.78;84.83;100519.28;5034044;28;20037;-83
2021/03/27 02:25:39;;;;;;;10.13;1.38;;;;;;;5.89;84.77;100509.22;5049310;28;20025;-83
2021/03/27 02:28:29;;;;;;;12.90;1.50;;;;;;;5.98;83.54;100507.97;5054025;28;20052;-83
2021/03/27 02:31:11;;;;;;;8.70;1.17;;;;;;;5.92;83.66;100520.34;5053377;28;20033;-83
2021/03/27 02:33:45;;;;;;;7.28;1.85;;;;;;;6.11;83.11;100525.56;5051162;28;20377;-82
2021/03/27 02:36:17;;;;;;;10.00;1.20;;;;;;;5.93;83.12;100529.84;5033863;28;20405;-82
2021/03/27 02:38:55;;;;;;;10.27;1.30;;;;;;;6.08;83.12;100538.75;5042562;28;20028;-82
2021/03/27 02:41:23;;;;;;;6.93;1.52;;;;;;;5.61;85.66;100538.28;5033954;28;20041;-82
2021/03/27 02:43:56;;;;;;;9.88;1.50;;;;;;;5.65;85.62;100539.84;5042579;28;20037;-82
2021/03/27 02:46:40;;;;;;;9.50;1.38;;;;;;;5.64;86.36;100548.56;5048954;28;20037;-82
2021/03/27 02:49:29;;;;;;;13.73;1.52;;;;;;;5.73;85.51;100553.38;5045053;28;20388;-82
2021/03/27 02:52:21;;;;;;;7.20;1.60;;;;;;;5.60;85.22;100560.03;5053751;28;20494;-82
2021/03/27 02:55:18;;;;;;;14.35;1.73;;;;;;;5.78;84.59;100560.97;5048896;28;20045;-83
2021/03/27 02:57:56;;;;;;;11.60;1.77;;;;;;;5.94;83.88;100557.59;5051952;28;20037;-83
2021/03/27 03:00:46;;;;;;;12.73;1.85;;;;;;;5.80;84.77;100566.97;5042924;28;20376;-83
2021/03/27 03:03:24;;;;;;;10.95;1.90;;;;;;;5.92;83.59;100564.66;5039492;28;20056;-83
2021/03/27 03:05:57;;;;;;;9.07;1.88;;;;;;;5.93;83.31;100560.28;5033396;28;20025;-82
2021/03/27 03:08:24;;;;;;;11.15;1.75;;;;;;;5.95;82.54;100579.31;5037984;28;20406;-82
2021/03/27 03:11:23;;;;;;;17.13;2.10;;;;;;;5.73;84.63;100574.22;5053312;28;20115;-82
2021/03/27 03:14:07;;;;;;;6.80;1.55;;;;;;;6.03;82.36;100587.63;5052473;28;20071;-82
2021/03/27 03:16:51;;;;;;;13.65;2.33;;;;;;;5.71;84.10;100602.09;5051781;28;20051;-82
2021/03/27 03:19:26;;;;;;;13.85;1.98;;;;;;;5.70;85.10;100597.78;5051828;28;20041;-82
2021/03/27 03:22:12;;;;;;;6.72;1.83;;;;;;;5.85;82.80;100596.28;5057481;28;20032;-82
2021/03/27 03:24:56;;;;;;;12.27;1.83;;;;;;;5.68;82.75;100613.47;5032824;28;20091;-82
2021/03/27 03:27:39;;;;;;;10.82;1.60;;;;;;;5.92;82.51;100616.78;5038060;28;20395;-82
2021/03/27 03:30:26;;;;;;;15.60;3.15;;;;;;;5.91;82.60;100625.50;5034900;28;20076;-82
2021/03/27 03:33:02;;;;;;;12.40;1.90;;;;;;;5.92;81.21;100627.19;5048202;28;20360;-82
2021/03/27 03:35:45;;;;;;;9.95;2.22;;;;;;;5.95;84.06;100627.06;5052525;28;20451;-82
2021/03/27 03:38:32;;;;;;;10.02;2.22;;;;;;;5.82;83.09;100625.06;5049901;28;20625;-82
2021/03/27 03:41:43;;;;;;;15.57;2.22;;;;;;;5.55;85.53;100635.78;5051438;28;20086;-82
2021/03/27 03:44:11;;;;;;;8.55;1.90;;;;;;;6.00;83.79;100644.25;5033009;28;20029;-82
2021/03/27 03:47:12;;;;;;;9.50;2.20;;;;;;;6.01;81.46;100641.59;5036532;28;20029;-82
2021/03/27 03:50:11;;;;;;;24.13;2.65;;;;;;;6.05;81.53;100642.31;5052487;28;20032;-82
2021/03/27 03:52:52;;;;;;;13.60;2.08;;;;;;;5.75;82.32;100640.97;5050605;28;20021;-82
2021/03/27 03:55:53;;;;;;;12.20;2.40;;;;;;;6.04;80.71;100653.63;5051426;28;20070;-82
2021/03/27 03:58:36;;;;;;;11.85;2.88;;;;;;;6.19;80.83;100652.94;5008394;28;20451;-82
2021/03/27 04:01:22;;;;;;;10.45;2.20;;;;;;;6.06;82.68;100650.06;5033132;28;20034;-82
2021/03/27 04:04:07;;;;;;;5.80;2.05;;;;;;;6.00;83.36;100665.13;5040465;28;20423;-82
2021/03/27 04:06:37;;;;;;;8.88;1.90;;;;;;;5.87;83.14;100665.63;5036676;28;20032;-82
2021/03/27 04:09:24;;;;;;;7.35;2.03;;;;;;;6.20;82.25;100661.59;5052230;28;20033;-82
2021/03/27 04:11:53;;;;;;;19.95;2.45;;;;;;;6.22;80.56;100660.66;5035057;28;20025;-82
2021/03/27 04:14:31;;;;;;;12.18;2.30;;;;;;;6.31;80.35;100669.78;5032208;28;20036;-81
2021/03/27 04:17:05;;;;;;;12.75;2.58;;;;;;;5.89;81.40;100678.59;5046367;28;20028;-82
2021/03/27 04:19:37;;;;;;;14.00;2.45;;;;;;;6.31;78.80;100688.03;5052129;28;20025;-83
2021/03/27 04:22:08;;;;;;;13.90;1.63;;;;;;;6.38;79.16;100680.78;5035053;28;20468;-83
2021/03/27 04:24:51;;;;;;;10.27;1.87;;;;;;;6.01;80.01;100685.91;5032138;28;20516;-82
2021/03/27 04:27:31;;;;;;;16.15;2.20;;;;;;;5.75;81.06;100687.03;5050460;28;20276;-83
2021/03/27 04:30:10;;;;;;;19.50;4.22;;;;;;;5.71;82.32;100688.06;5051551;28;20048;-83
2021/03/27 04:32:52;;;;;;;10.32;2.10;;;;;;;5.75;80.41;100687.03;5040756;28;20108;-83
2021/03/27 04:35:35;;;;;;;;;;;;;;;5.89;79.84;100679.44;5050226;28;20096;-82
2021/03/27 04:38:18;;;;;;;12.00;2.25;;;;;;;5.83;80.04;100684.94;5031863;28;20003;-83
2021/03/27 04:40:53;;;;;;;18.92;2.75;;;;;;;5.72;81.34;100676.72;5045580;28;20021;-83
2021/03/27 04:43:28;;;;;;;15.50;2.10;;;;;;;5.67;81.85;100683.91;5051894;28;20029;-83
2021/03/27 04:45:57;;;;;;;12.15;2.30;;;;;;;5.30;85.12;100685.47;5049739;28;20103;-83
2021/03/27 04:48:40;;;;;;;11.15;2.22;;;;;;;5.74;80.68;100680.94;5051638;28;20029;-83
2021/03/27 04:52:02;;;;;;;12.95;2.10;;;;;;;5.66;81.27;100688.25;5034226;28;20060;-83
2021/03/27 04:54:49;;;;;;;9.70;2.10;;;;;;;5.87;79.80;100696.91;4973789;28;20046;-83
2021/03/27 04:57:27;;;;;;;19.02;2.55;;;;;;;5.86;79.68;100689.16;4990118;28;20069;-83
2021/03/27 05:00:23;;;;;;;8.68;3.38;;;;;;;5.66;80.96;100701.28;5031912;28;20555;-83
2021/03/27 05:03:00;;;;;;;7.50;1.95;;;;;;;5.76;80.50;100696.53;5031758;28;20447;-83
2021/03/27 05:06:10;;;;;;;19.70;2.63;;;;;;;5.93;80.08;100717.50;5042398;28;20083;-83
2021/03/27 05:08:57;;;;;;;12.65;1.83;;;;;;;5.93;79.21;100717.50;5037509;28;20041;-83
2021/03/27 05:11:33;;;;;;;14.50;2.00;;;;;;;5.79;79.24;100716.41;5051367;28;20021;-83
2021/03/27 05:14:22;;;;;;;17.50;2.20;;;;;;;6.11;78.31;100725.44;5044467;28;20029;-83
2021/03/27 05:17:02;;;;;;;21.20;1.85;;;;;;;6.09;78.43;100729.88;5031587;28;20407;-82
2021/03/27 05:20:02;;;;;;;11.45;1.90;;;;;;;6.08;78.54;100728.19;5041606;28;20044;-82
2021/03/27 05:22:48;;;;;;;14.63;3.22;;;;;;;6.10;78.46;100744.59;5051384;28;20057;-83
2021/03/27 05:25:38;;;;;;;17.92;2.92;;;;;;;6.02;79.30;100749.31;5048061;28;20508;-83
2021/03/27 05:28:18;;;;;;;14.73;2.83;;;;;;;6.07;78.97;100744.75;5051340;28;20455;-82
2021/03/27 05:30:53;;;;;;;8.63;2.65;;;;;;;6.01;80.05;100755.44;5031671;28;20072;-82
2021/03/27 05:33:27;;;;;;;9.95;2.13;;;;;;;5.97;79.59;100764.31;5039318;28;20399;-83
2021/03/27 05:36:01;;;;;;;11.25;1.52;;;;;;;5.89;80.46;100769.81;5051379;28;20483;-82
2021/03/27 05:38:37;;;;;;;18.17;3.08;;;;;;;5.75;80.82;100776.47;5041740;28;20159;-82
2021/03/27 05:41:21;;;;;;;11.18;2.03;;;;;;;5.86;81.42;100783.81;5050768;28;20029;-82
2021/03/27 05:44:12;;;;;;;19.63;2.10;;;;;;;5.91;81.42;100784.47;5050382;28;20032;-83
2021/03/27 05:46:49;;;;;;;13.07;1.60;;;;;;;5.93;80.13;100792.22;5051262;28;20018;-82
2021/03/27 05:49:17;;;;;;;13.68;2.05;;;;;;;5.95;80.47;100800.88;5035446;28;20064;-82
2021/03/27 05:52:07;;;;;;;9.10;1.65;;;;;;;5.94;80.94;100812.16;5031078;28;20024;-83
2021/03/27 05:55:20;;;;;;;12.25;2.10;;;;;;;5.86;80.44;100812.47;5048230;28;20025;-83
2021/03/27 05:58:12;;;;;;;12.25;2.38;;;;;;;5.97;80.47;100819.91;5046299;28;20049;-82
2021/03/27 06:01:07;;;;;;;9.40;1.80;;;;;;;6.04;79.23;100823.06;5035146;28;20030;-82
2021/03/27 06:04:05;;;;;;;13.52;2.03;;;;;;;5.97;80.01;100834.69;5025087;28;20037;-82
2021/03/27 06:06:30;;;;;;;9.45;1.67;;;;;;;5.83;80.26;100836.06;5052252;28;20395;-82
2021/03/27 06:09:16;;;;;;;7.93;1.67;;;;;;;5.82;79.84;100852.59;5035727;28;20025;-82
2021/03/27 06:11:46;;;;;;;10.13;2.00;;;;;;;5.75;80.91;100859.00;5036427;28;20379;-82
2021/03/27 06:14:49;;;;;;;6.35;1.35;;;;;;;5.76;81.85;100855.47;5054412;28;20126;-82
2021/03/27 06:17:26;;;;;;;9.50;1.70;;;;;;;5.73;81.94;100855.59;5047403;28;20091;-83
2021/03/27 06:20:13;;;;;;;13.77;2.28;;;;;;;5.74;82.72;100855.53;5034339;28;20079;-82
2021/03/27 06:22:38;;;;;;;10.35;2.40;;;;;;;5.72;81.89;100864.31;5044025;28;20035;-82
2021/03/27 06:25:36;;;;;;;17.75;2.65;;;;;;;5.62;82.87;100863.84;5037266;28;20029;-82
2021/03/27 06:28:38;;;;;;;19.67;2.45;;;;;;;5.76;82.77;100865.88;5038161;28;20044;-82
2021/03/27 06:31:10;;;;;;;;;;;;;;;5.89;81.74;100877.50;5047576;28;20017;-82
2021/03/27 06:33:50;;;;;;;16.00;2.63;;;;;;;5.83;80.94;100877.78;5034561;28;20272;-82
2021/03/27 06:36:33;;;;;;;11.38;1.85;;;;;;;6.03;80.59;100878.75;5040513;28;20035;-82
2021/03/27 06:39:17;;;;;;;10.73;2.63;;;;;;;5.95;81.60;100876.44;5052032;28;20112;-82
2021/03/27 06:41:48;;;;;;;8.63;1.98;;;;;;;6.04;81.69;100872.59;5041286;28;20041;-82
2021/03/27 06:44:17;;;;;;;10.68;2.25;;;;;;;6.16;81.14;100879.91;5037946;28;20022;-82
2021/03/27 06:47:24;;;;;;;10.13;2.17;;;;;;;6.33;80.43;100879.22;5043876;28;20372;-82
2021/03/27 06:50:27;;;;;;;11.63;2.63;;;;;;;6.40;79.30;100885.88;5034090;28;20086;-83
2021/03/27 06:53:21;;;;;;;18.75;3.22;;;;;;;6.50;79.59;100888.94;5043581;28;20037;-83
2021/03/27 06:55:59;;;;;;;10.52;2.20;;;;;;;6.63;80.33;100895.28;5033890;28;20035;-83
2021/03/27 06:58:47;;;;;;;13.35;2.30;;;;;;;6.52;78.25;100905.38;5050606;28;20072;-83
2021/03/27 07:01:48;;;;;;;23.08;3.05;;;;;;;6.73;79.50;100901.81;5039639;28;20361;-83
2021/03/27 07:04:34;;;;;;;13.10;2.78;;;;;;;7.30;77.01;100906.22;5043614;28;20526;-82
2021/03/27 07:07:18;;;;;;;16.67;3.10;;;;;;;7.48;74.51;100913.19;5031933;28;20112;-83
2021/03/27 07:10:05;;;;;;;14.07;2.58;;;;;;;8.10;73.73;100923.34;5047716;28;20103;-83
2021/03/27 07:12:48;;;;;;;22.30;3.53;;;;;;;8.15;72.40;100939.63;5042027;28;20115;-83
2021/03/27 07:15:35;;;;;;;19.27;3.30;;;;;;;8.01;72.73;100937.69;5035315;28;20025;-82
2021/03/27 07:18:38;;;;;;;17.95;3.25;;;;;;;8.41;72.52;100947.97;5050693;28;20383;-83
2021/03/27 07:21:15;;;;;;;27.08;4.10;;;;;;;8.36;72.77;100949.97;5033536;28;20030;-83
2021/03/27 07:24:00;;;;;;;25.20;3.53;;;;;;;9.00;69.68;100954.53;5048305;28;20029;-82
2021/03/27 07:26:26;;;;;;;11.98;3.65;;;;;;;9.17;68.86;100956.28;5052820;28;20120;-82
2021/03/27 07:29:30;;;;;;;16.20;2.58;;;;;;;9.41;66.34;100956.72;5042943;28;20539;-82
2021/03/27 07:32:38;;;;;;;20.85;3.13;;;;;;;9.98;66.11;100960.63;5036437;28;20056;-83
2021/03/27 07:35:15;;;;;;;17.35;2.55;;;;;;;10.81;61.80;100967.16;5018648;28;20502;-83
2021/03/27 07:37:59;;;;;;;20.27;3.55;;;;;;;10.89;62.44;100970.19;5032985;28;20029;-83
2021/03/27 07:40:35;;;;;;;20.88;3.10;;;;;;;10.87;62.71;100976.47;5032677;28;20144;-83
2021/03/27 07:43:01;;;;;;;24.63;4.90;;;;;;;10.64;61.51;100978.69;5045568;28;20032;-83
2021/03/27 07:45:38;;;;;;;15.98;4.00;;;;;;;11.68;57.58;100983.75;5048379;28;20020;-83
2021/03/27 07:48:21;;;;;;;20.35;2.75;;;;;;;12.04;56.76;100985.84;5047414;28;20053;-83
2021/03/27 07:51:21;;;;;;;23.30;3.70;;;;;;;11.19;57.07;100989.44;5032364;28;20076;-83
2021/03/27 07:54:18;;;;;;;17.73;3.15;;;;;;;11.75;55.78;100995.59;5050686;28;20029;-83
2021/03/27 07:56:48;;;;;;;17.55;3.10;;;;;;;11.78;58.72;100999.81;5032315;28;20037;-83
2021/03/27 07:59:23;;;;;;;20.58;3.22;;;;;;;12.44;54.90;101003.44;5032263;28;20034;-83
2021/03/27 08:02:19;;;;;;;23.55;3.58;;;;;;;13.29;52.82;101009.97;5032772;28;20040;-83
2021/03/27 08:05:21;;;;;;;13.80;3.20;;;;;;;13.89;52.37;101011.00;5032168;28;20450;-83
2021/03/27 08:08:10;;;;;;;20.85;4.35;;;;;;;13.46;50.04;101018.50;5033496;28;20036;-83
2021/03/27 08:11:13;;;;;;;17.73;3.97;;;;;;;14.04;48.54;101019.63;5051512;28;20032;-83
2021/03/27 08:14:03;;;;;;;21.40;3.65;;;;;;;14.82;46.95;101020.06;5049265;28;20421;-83
2021/03/27 08:16:34;;;;;;;17.50;2.90;;;;;;;15.41;43.97;101019.88;5050252;28;20493;-82
2021/03/27 08:19:32;;;;;;;21.55;4.60;;;;;;;15.17;43.52;101030.59;5048000;28;20536;-82
2021/03/27 08:22:03;;;;;;;15.02;3.47;;;;;;;15.29;43.14;101035.91;5012574;28;20048;-82
2021/03/27 08:24:49;;;;;;;17.95;3.53;;;;;;;15.56;43.65;101049.63;5033969;28;20116;-82
2021/03/27 08:27:15;;;;;;;18.33;3.33;;;;;;;16.70;42.19;101052.84;5051865;28;20548;-82
2021/03/27 08:30:00;;;;;;;23.40;3.42;;;;;;;16.45;41.19;101058.38;5051161;28;20111;-82
2021/03/27 08:33:13;;;;;;;15.32;3.88;;;;;;;16.52;40.85;101056.03;5051625;28;20107;-82
2021/03/27 08:36:06;;;;;;;14.45;3.78;;;;;;;16.91;40.96;101066.97;5009973;28;20057;-82
2021/03/27 08:39:02;;;;;;;17.25;3.25;;;;;;;17.60;39.37;101081.47;5009633;28;20127;-82
2021/03/27 08:41:47;;;;;;;14.45;3.13;;;;;;;17.81;37.02;101076.94;5053354;28;20046;-83
2021/03/27 08:44:37;;;;;;;13.77;3.47;;;;;;;17.60;39.07;101086.78;5071658;28;20047;-83
2021/03/27 08:47:24;;;;;;;12.68;2.63;;;;;;;17.51;37.99;101088.41;5069728;28;20029;-82
2021/03/27 08:50:28;;;;;;;13.43;3.20;;;;;;;18.02;36.73;101094.63;5060204;28;20014;-83
2021/03/27 08:52:59;;;;;;;15.30;3.42;;;;;;;17.54;38.70;101097.94;5064618;28;20041;-81
2021/03/27 08:55:39;;;;;;;13.43;3.08;;;;;;;17.93;36.95;101095.44;5060924;28;20013;-81
2021/03/27 08:58:43;;;;;;;14.30;3.47;;;;;;;18.84;36.01;101096.16;5049039;28;20044;-84
2021/03/27 09:01:41;;;;;;;17.48;3.58;;;;;;;17.99;37.65;101101.06;5033403;28;20037;-83
2021/03/27 09:04:15;;;;;;;13.70;2.35;;;;;;;18.33;36.00;101110.53;5053507;28;20025;-82
2021/03/27 09:07:04;;;;;;;16.33;3.75;;;;;;;18.46;35.57;101103.09;5069063;28;20009;-83
2021/03/27 09:09:45;;;;;;;12.35;3.17;;;;;;;18.57;35.45;101104.81;5075132;28;20255;-83
2021/03/27 09:12:28;;;;;;;12.18;2.75;;;;;;;19.03;36.79;101101.44;5072581;28;20009;-83
2021/03/27 09:15:21;;;;;;;11.82;2.78;;;;;;;18.62;35.77;101107.88;5066593;28;20120;-84
2021/03/27 09:18:18;;;;;;;16.35;3.58;;;;;;;19.61;34.05;101120.94;5044738;28;20045;-83
2021/03/27 09:21:01;;;;;;;12.73;2.92;;;;;;;18.18;37.37;101126.00;5069256;28;20067;-83
2021/03/27 09:23:36;;;;;;;12.35;2.60;;;;;;;19.40;35.92;101124.63;5056227;28;20025;-84
2021/03/27 09:26:13;;;;;;;10.60;2.50;;;;;;;18.10;37.05;101139.97;5058935;28;20033;-83
2021/03/27 09:29:03;;;;;;;13.95;2.67;;;;;;;17.34;39.13;101153.56;5072732;28;20049;-83
2021/03/27 09:32:01;;;;;;;10.93;2.72;;;;;;;15.82;41.32;101132.31;5054212;28;20056;-84
2021/03/27 09:34:59;;;;;;;22.23;3.47;;;;;;;16.50;41.13;101142.81;5038197;28;20445;-83
2021/03/27 09:37:34;;;;;;;20.10;3.22;;;;;;;14.99;44.84;101151.84;5036381;28;20108;-83
2021/03/27 09:40:08;;;;;;;11.85;3.00;;;;;;;14.81;47.00;101163.78;5042685;28;20029;-82
2021/03/27 09:42:42;;;;;;;18.63;3.80;;;;;;;16.31;44.46;101158.50;5042056;28;20372;-82
2021/03/27 09:45:19;;;;;;;14.63;3.25;;;;;;;16.29;42.77;101155.13;5037513;28;20056;-81
2021/03/27 09:48:28;;;;;;;11.18;2.70;;;;;;;15.31;45.33;101148.56;5043920;28;20028;-82
2021/03/27 09:51:05;;;;;;;14.75;3.47;;;;;;;16.06;43.63;101144.56;5043753;28;20033;-82
2021/03/27 09:53:58;;;;;;;15.50;3.30;;;;;;;14.82;44.94;101152.25;5047221;28;20044;-82
2021/03/27 09:57:02;;;;;;;13.45;2.70;;;;;;;14.36;45.56;101156.44;5039815;28;20033;-82
2021/03/27 09:59:30;;;;;;;15.68;2.30;;;;;;;13.87;46.95;101181.84;4973531;28;20031;-81
2021/03/27 10:02:22;;;;;;;16.73;2.35;;;;;;;13.69;50.44;101181.34;5024795;28;20037;-81
2021/03/27 10:05:24;;;;;;;20.53;3.63;;;;;;;13.30;50.92;101187.53;5032717;28;20033;-81
2021/03/27 10:08:37;;;;;;;21.80;3.13;;;;;;;12.65;52.54;101191.69;5034481;28;20108;-81
2021/03/27 10:11:12;;;;;;;13.65;2.53;;;;;;;12.77;52.03;101197.97;5017853;28;20041;-81
2021/03/27 10:13:58;;;;;;;17.95;3.50;;;;;;;12.36;52.99;101190.94;5044478;28;20392;-81
2021/03/27 10:16:35;;;;;;;18.10;2.40;;;;;;;12.66;52.50;101187.31;5038416;28;20391;-81
2021/03/27 10:19:13;;;;;;;18.55;2.92;;;;;;;13.05;52.34;101188.25;5037072;28;20419;-81
2021/03/27 10:21:47;;;;;;;17.15;2.63;;;;;;;13.35;51.45;101200.41;5047288;28;20025;-80
2021/03/27 10:24:31;;;;;;;16.48;2.40;;;;;;;13.06;51.65;101201.34;5054064;28;20016;-81
2021/03/27 10:27:12;;;;;;;12.73;2.78;;;;;;;12.21;52.25;101202.44;5050333;28;20037;-81
2021/03/27 10:30:04;;;;;;;9.18;2.90;;;;;;;13.00;51.92;101191.22;5044023;28;20629;-81
2021/03/27 10:32:29;;;;;;;11.07;2.38;;;;;;;13.79;51.10;101202.66;5053053;28;20376;-81
2021/03/27 10:35:18;;;;;;;17.15;3.60;;;;;;;13.69;51.01;101194.53;5052156;28;20095;-82
2021/03/27 10:37:45;;;;;;;14.02;1.98;;;;;;;13.41;49.55;101208.75;5042343;28;20052;-82
2021/03/27 10:40:48;;;;;;;15.55;2.35;;;;;;;12.78;50.23;101209.38;5045508;28;20033;-82
2021/03/27 10:43:48;;;;;;;19.40;1.95;;;;;;;12.63;51.75;101225.22;5038093;28;20175;-82
2021/03/27 10:46:36;;;;;;;11.98;2.92;;;;;;;12.11;53.04;101228.47;5030678;28;20096;-82
2021/03/27 10:49:11;;;;;;;13.32;2.40;;;;;;;12.10;57.68;101226.78;5034917;28;20100;-82
2021/03/27 10:52:14;;;;;;;17.65;2.25;;;;;;;11.74;60.09;101222.78;5038350;28;20026;-82
2021/03/27 10:54:57;;;;;;;12.02;2.95;;;;;;;12.26;60.22;101222.28;5039662;28;20480;-82
2021/03/27 10:57:42;;;;;;;13.93;2.05;;;;;;;12.67;56.97;101213.53;5051209;28;20479;-82
2021/03/27 11:00:41;;;;;;;17.88;2.40;;;;;;;12.16;56.74;101202.69;5040371;28;20025;-82
2021/03/27 11:03:27;;;;;;;16.05;2.35;;;;;;;12.41;58.13;101212.56;5033712;28;20095;-82
2021/03/27 11:06:02;;;;;;;16.58;3.00;;;;;;;12.95;58.75;101216.19;5034480;28;20509;-82
2021/03/27 11:09:04;;;;;;;11.85;2.60;;;;;;;13.40;56.29;101211.50;5037089;28;20399;-82
2021/03/27 11:11:45;;;;;;;9.60;1.85;;;;;;;13.52;55.65;101223.84;5040118;28;20029;-82
2021/03/27 11:14:29;;;;;;;14.25;2.00;;;;;;;14.32;53.05;101220.16;5033450;28;20025;-82
2021/03/27 11:17:15;;;;;;;16.60;2.38;;;;;;;14.07;50.06;101219.22;5043113;28;20029;-82
2021/03/27 11:19:59;;;;;;;10.90;2.40;;;;;;;14.15;51.56;101222.19;5053413;28;20039;-81
2021/03/27 11:22:42;;;;;;;17.45;2.20;;;;;;;13.32;50.42;101217.28;5037765;28;20033;-83
2021/03/27 11:25:40;;;;;;;13.38;2.35;;;;;;;13.34;51.48;101215.38;5045876;28;20025;-82
2021/03/27 11:28:12;;;;;;;11.27;2.28;;;;;;;14.34;50.18;101218.25;5051077;28;20136;-83
2021/03/27 11:31:00;;;;;;;18.80;3.25;;;;;;;14.50;47.71;101216.22;5045296;28;20552;-84
2021/03/27 11:33:48;;;;;;;19.42;2.63;;;;;;;15.99;44.89;101218.34;5034789;28;20037;-82
2021/03/27 11:36:23;;;;;;;11.30;3.25;;;;;;;15.77;46.28;101219.19;5034234;28;20033;-81
2021/03/27 11:39:13;;;;;;;17.30;2.13;;;;;;;15.85;44.44;101222.09;5046858;28;20033;-80
2021/03/27 11:41:53;;;;;;;14.32;2.10;;;;;;;16.93;40.12;101224.19;5032752;28;20420;-80
2021/03/27 11:44:54;;;;;;;12.52;2.28;;;;;;;17.91;39.91;101222.25;5044349;28;20024;-83
2021/03/27 11:47:35;;;;;;;5.88;1.27;;;;;;;19.10;36.84;101228.66;5032562;28;20037;-83
2021/03/27 11:50:15;;;;;;;5.32;1.45;;;;;;;19.47;34.14;101231.44;5040380;28;20105;-83
2021/03/27 11:53:00;;;;;;;6.50;1.45;;;;;;;19.26;33.49;101239.56;5050910;28;20053;-83
2021/03/27 11:55:30;;;;;;;7.50;1.73;;;;;;;19.54;33.89;101243.19;5051625;28;20029;-83
2021/03/27 11:58:11;;;;;;;6.90;1.77;;;;;;;19.66;32.80;101232.38;5052440;28;20036;-83
2021/03/27 12:01:04;;;;;;;9.23;1.77;;;;;;;20.24;30.66;101231.38;5051734;28;20037;-83
2021/03/27 12:03:47;;;;;;;6.82;1.17;;;;;;;20.09;29.97;101241.69;5046592;28;20029;-83
2021/03/27 12:06:38;;;;;;;4.18;1.30;;;;;;;21.27;31.13;101240.84;5046873;28;20075;-83
2021/03/27 12:09:15;;;;;;;9.23;1.58;;;;;;;20.08;30.16;101229.34;5033827;28;20045;-82
2021/03/27 12:11:52;;;;;;;8.65;1.20;;;;;;;19.26;30.86;101239.56;5032356;28;20038;-83
2021/03/27 12:14:41;;;;;;;12.68;2.30;;;;;;;19.05;32.27;101246.84;5032433;28;20068;-83
2021/03/27 12:17:19;;;;;;;8.68;1.30;;;;;;;19.14;30.65;101240.69;5032755;28;20033;-83
2021/03/27 12:20:06;;;;;;;10.05;2.40;;;;;;;20.76;31.17;101253.03;5036884;28;20033;-83
2021/03/27 12:22:38;;;;;;;8.65;2.28;;;;;;;20.93;30.70;101252.22;5045374;28;20406;-83
2021/03/27 12:25:29;;;;;;;6.18;1.30;;;;;;;20.43;30.08;101252.63;5042935;28;20054;-83
2021/03/27 12:28:01;;;;;;;8.15;1.65;;;;;;;19.65;31.25;101255.53;5046362;28;20040;-83
2021/03/27 12:30:42;;;;;;;6.55;1.48;;;;;;;20.30;30.24;101252.97;5035898;28;20024;-83
2021/03/27 12:33:11;;;;;;;4.65;1.73;;;;;;;19.75;31.69;101256.38;5050854;28;20095;-83
2021/03/27 12:35:58;;;;;;;5.75;1.30;;;;;;;19.45;32.93;101249.38;5046017;28;20037;-83
2021/03/27 12:38:27;;;;;;;6.28;2.03;;;;;;;19.62;31.48;101253.97;5047288;28;20020;-83